createdAt,value
2023-02-14T00:00:22.135Z,1.80
2023-02-14T00:02:52.274Z,1.80
2023-02-14T00:05:20.986Z,1.80
2023-02-14T00:07:49.733Z,1.70
2023-02-14T00:10:18.793Z,1.70
2023-02-14T00:12:47.609Z,1.70
2023-02-14T00:15:23.784Z,1.70
2023-02-14T00:17:59.780Z,1.70
2023-02-14T00:20:29.442Z,1.70
2023-02-14T00:22:58.002Z,1.80
2023-02-14T00:25:26.606Z,1.80
2023-02-14T00:27:55.707Z,1.90
2023-02-14T00:30:24.758Z,2.00
2023-02-14T00:32:54.823Z,1.90
2023-02-14T00:35:23.445Z,2.00
2023-02-14T00:37:52.076Z,2.10
2023-02-14T00:40:20.649Z,2.10
2023-02-14T00:42:49.220Z,1.90
2023-02-14T00:45:20.493Z,1.90
2023-02-14T00:47:49.144Z,1.90
2023-02-14T00:50:19.266Z,1.90
2023-02-14T00:52:48.143Z,1.90
2023-02-14T00:55:17.116Z,2.00
2023-02-14T00:57:45.785Z,2.00
2023-02-14T01:00:15.897Z,2.10
2023-02-14T01:02:44.517Z,2.20
2023-02-14T01:05:13.229Z,2.20
2023-02-14T01:07:43.351Z,2.20
2023-02-14T01:10:12.730Z,2.10
2023-02-14T01:12:41.418Z,2.10
2023-02-14T01:15:10.844Z,2.00
2023-02-14T01:17:39.518Z,1.90
2023-02-14T01:20:09.751Z,1.90
2023-02-14T01:22:38.592Z,1.90
2023-02-14T01:25:09.315Z,2.00
2023-02-14T01:27:38.176Z,2.00
2023-02-14T01:30:08.016Z,2.10
2023-02-14T01:32:37.041Z,2.00
2023-02-14T01:35:06.013Z,2.00
2023-02-14T01:37:34.665Z,1.90
2023-02-14T01:40:03.552Z,1.90
2023-02-14T01:42:34.601Z,2.00
2023-02-14T01:45:06.175Z,2.10
2023-02-14T01:47:39.779Z,2.20
2023-02-14T01:50:11.067Z,2.10
2023-02-14T01:52:45.091Z,2.10
2023-02-14T01:55:17.063Z,2.20
2023-02-14T01:57:53.261Z,2.10
2023-02-14T02:00:40.727Z,2.10
2023-02-14T02:03:10.187Z,2.20
2023-02-14T02:05:43.428Z,2.30
2023-02-14T02:08:12.916Z,2.30
2023-02-14T02:10:41.463Z,2.40
2023-02-14T02:13:17.299Z,2.40
2023-02-14T02:15:55.916Z,2.40
2023-02-14T02:18:34.948Z,2.40
2023-02-14T02:21:57.384Z,2.40
2023-02-14T02:24:37.040Z,2.30
2023-02-14T02:27:45.170Z,2.30
2023-02-14T02:30:46.585Z,2.30
2023-02-14T02:34:03.084Z,2.30
2023-02-14T02:36:58.208Z,2.30
2023-02-14T02:39:55.848Z,2.30
2023-02-14T02:42:35.082Z,2.20
2023-02-14T02:45:12.474Z,2.20
2023-02-14T02:47:47.125Z,2.30
2023-02-14T02:50:41.393Z,2.30
2023-02-14T02:53:21.857Z,2.20
2023-02-14T02:56:19.532Z,2.30
2023-02-14T02:58:53.102Z,2.30
2023-02-14T03:01:24.992Z,2.30
2023-02-14T03:04:15.187Z,2.30
2023-02-14T03:06:45.727Z,2.20
2023-02-14T03:09:56.769Z,2.20
2023-02-14T03:12:52.500Z,2.20
2023-02-14T03:15:31.505Z,2.20
2023-02-14T03:18:22.096Z,2.10
2023-02-14T03:20:56.192Z,2.10
2023-02-14T03:23:30.052Z,2.10
2023-02-14T03:26:10.879Z,2.00
2023-02-14T03:28:46.783Z,2.00
2023-02-14T03:31:24.191Z,2.00
2023-02-14T03:34:00.874Z,2.00
2023-02-14T03:36:36.438Z,2.00
2023-02-14T03:39:11.894Z,2.00
2023-02-14T03:41:48.442Z,2.00
2023-02-14T03:44:21.104Z,2.00
2023-02-14T03:46:53.592Z,2.00
2023-02-14T03:49:32.833Z,1.90
2023-02-14T03:52:03.855Z,1.90
2023-02-14T03:54:34.256Z,1.80
2023-02-14T03:57:13.012Z,1.90
2023-02-14T03:59:42.450Z,1.90
2023-02-14T04:02:15.061Z,1.80
2023-02-14T04:04:46.137Z,1.80
2023-02-14T04:07:16.764Z,1.70
2023-02-14T04:09:45.906Z,1.70
2023-02-14T04:12:21.719Z,1.70
2023-02-14T04:14:52.517Z,1.80
2023-02-14T04:17:44.056Z,1.80
2023-02-14T04:20:12.941Z,1.80
2023-02-14T04:22:41.540Z,1.80
2023-02-14T04:25:10.227Z,1.70
2023-02-14T04:27:40.256Z,1.70
2023-02-14T04:30:10.249Z,1.60
2023-02-14T04:32:39.236Z,1.60
2023-02-14T04:35:08.505Z,1.60
2023-02-14T04:37:37.211Z,1.60
2023-02-14T04:40:06.863Z,1.60
2023-02-14T04:42:35.918Z,1.50
2023-02-14T04:45:06.296Z,1.50
2023-02-14T04:47:34.888Z,1.50
2023-02-14T04:50:03.482Z,1.50
2023-02-14T04:52:32.113Z,1.60
2023-02-14T04:55:00.762Z,1.50
2023-02-14T04:57:29.334Z,1.50
2023-02-14T04:59:58.068Z,1.40
2023-02-14T05:02:28.043Z,1.40
2023-02-14T05:04:56.593Z,1.40
2023-02-14T05:07:25.204Z,1.30
2023-02-14T05:09:53.817Z,1.30
2023-02-14T05:12:22.476Z,1.20
2023-02-14T05:14:51.235Z,1.10
2023-02-14T05:17:19.872Z,1.10
2023-02-14T05:19:50.009Z,1.00
2023-02-14T05:22:18.749Z,1.00
2023-02-14T05:24:47.530Z,1.00
2023-02-14T05:27:16.143Z,0.90
2023-02-14T05:29:44.839Z,0.80
2023-02-14T05:32:13.661Z,0.70
2023-02-14T05:34:42.220Z,0.60
2023-02-14T05:37:12.151Z,0.60
2023-02-14T05:39:40.756Z,0.60
2023-02-14T05:42:11.927Z,0.40
2023-02-14T05:44:40.523Z,0.30
2023-02-14T05:47:09.908Z,0.30
2023-02-14T05:49:39.601Z,0.50
2023-02-14T05:52:08.555Z,0.50
2023-02-14T05:54:38.665Z,0.50
2023-02-14T05:57:07.323Z,0.60
2023-02-14T05:59:35.935Z,0.60
2023-02-14T06:02:04.632Z,0.60
2023-02-14T06:04:33.980Z,0.50
2023-02-14T06:07:02.704Z,0.40
2023-02-14T06:09:31.364Z,0.40
2023-02-14T06:12:01.335Z,0.30
2023-02-14T06:14:29.954Z,0.30
2023-02-14T06:16:58.594Z,0.30
2023-02-14T06:19:27.301Z,0.30
2023-02-14T06:21:56.323Z,0.30
2023-02-14T06:24:25.016Z,0.30
2023-02-14T06:26:53.709Z,0.40
2023-02-14T06:29:24.009Z,0.40
2023-02-14T06:31:52.782Z,0.40
2023-02-14T06:34:21.500Z,0.30
2023-02-14T06:36:50.114Z,0.20
2023-02-14T06:39:18.712Z,0.10
2023-02-14T06:41:47.718Z,0.00
2023-02-14T06:44:16.508Z,0.10
2023-02-14T06:46:46.649Z,0.10
2023-02-14T06:49:15.592Z,0.20
2023-02-14T06:51:44.187Z,0.20
2023-02-14T06:54:12.802Z,0.20
2023-02-14T06:56:41.419Z,0.20
2023-02-14T06:59:10.233Z,0.20
2023-02-14T07:01:38.866Z,0.10
2023-02-14T07:04:08.906Z,0.10
2023-02-14T07:06:38.554Z,0.10
2023-02-14T07:09:07.530Z,0.10
2023-02-14T07:11:36.202Z,0.20
2023-02-14T07:14:04.927Z,0.20
2023-02-14T07:16:33.765Z,0.30
2023-02-14T07:19:02.390Z,0.30
2023-02-14T07:21:32.555Z,0.30
2023-02-14T07:24:01.285Z,0.20
2023-02-14T07:26:29.947Z,0.40
2023-02-14T07:28:58.554Z,0.30
2023-02-14T07:31:27.384Z,0.30
2023-02-14T07:33:56.172Z,0.40
2023-02-14T07:36:24.880Z,0.40
2023-02-14T07:38:56.492Z,0.50
2023-02-14T07:41:25.459Z,0.50
2023-02-14T07:43:54.202Z,0.50
2023-02-14T07:46:22.931Z,0.60
2023-02-14T07:48:52.105Z,0.60
2023-02-14T07:51:20.964Z,0.60
2023-02-14T07:53:49.544Z,0.70
2023-02-14T07:56:19.684Z,0.70
2023-02-14T07:58:49.892Z,0.80
2023-02-14T08:01:19.045Z,0.80
2023-02-14T08:03:49.674Z,0.80
2023-02-14T08:06:18.692Z,0.90
2023-02-14T08:08:48.202Z,0.90
2023-02-14T08:11:37.599Z,1.00
2023-02-14T08:14:08.254Z,1.00
2023-02-14T08:16:38.417Z,1.00
2023-02-14T08:19:07.380Z,1.10
2023-02-14T08:21:36.280Z,1.20
2023-02-14T08:24:05.236Z,1.30
2023-02-14T08:26:33.883Z,1.30
2023-02-14T08:29:03.363Z,1.40
2023-02-14T08:31:36.078Z,1.40
2023-02-14T08:34:05.474Z,1.50
2023-02-14T08:36:34.983Z,1.60
2023-02-14T08:39:05.558Z,1.80
2023-02-14T08:41:35.704Z,1.80
2023-02-14T08:44:04.662Z,1.90
2023-02-14T08:46:34.653Z,2.00
2023-02-14T08:49:03.418Z,2.00
2023-02-14T08:51:32.141Z,2.10
2023-02-14T08:54:00.787Z,2.20
2023-02-14T08:56:29.550Z,2.30
2023-02-14T08:58:58.214Z,2.40
2023-02-14T09:01:29.158Z,2.60
2023-02-14T09:03:59.395Z,2.70
2023-02-14T09:06:28.039Z,2.80
2023-02-14T09:08:56.765Z,2.90
2023-02-14T09:11:26.313Z,3.00
2023-02-14T09:13:55.128Z,3.10
2023-02-14T09:16:25.245Z,3.20
2023-02-14T09:18:56.789Z,3.30
2023-02-14T09:21:28.916Z,3.40
2023-02-14T09:23:57.627Z,3.50
2023-02-14T09:26:26.388Z,3.60
2023-02-14T09:28:54.988Z,3.80
2023-02-14T09:31:25.317Z,3.90
2023-02-14T09:33:54.243Z,4.00
2023-02-14T09:36:40.191Z,4.20
2023-02-14T09:39:10.216Z,4.30
2023-02-14T09:42:09.736Z,4.50
2023-02-14T09:44:41.258Z,4.70
2023-02-14T09:47:19.670Z,4.80
2023-02-14T09:49:50.074Z,5.00
2023-02-14T09:52:29.816Z,5.20
2023-02-14T09:55:02.784Z,5.20
2023-02-14T09:57:41.015Z,5.30
2023-02-14T10:00:21.401Z,5.50
2023-02-14T10:03:02.455Z,5.60
2023-02-14T10:05:35.911Z,5.80
2023-02-14T10:08:18.357Z,5.90
2023-02-14T10:10:54.119Z,6.10
2023-02-14T10:13:30.996Z,6.30
2023-02-14T10:16:04.077Z,6.50
2023-02-14T10:18:41.517Z,6.60
2023-02-14T10:21:14.130Z,6.70
2023-02-14T10:23:48.806Z,6.90
2023-02-14T10:26:25.834Z,7.10
2023-02-14T10:28:55.348Z,7.20
2023-02-14T10:31:27.314Z,7.40
2023-02-14T10:33:58.754Z,7.60
2023-02-14T10:36:49.252Z,7.70
2023-02-14T10:39:34.375Z,7.90
2023-02-14T10:42:13.400Z,8.00
2023-02-14T10:44:48.859Z,8.20
2023-02-14T10:47:31.978Z,8.30
2023-02-14T10:50:09.645Z,8.50
2023-02-14T10:52:45.363Z,8.60
2023-02-14T10:55:32.010Z,8.80
2023-02-14T10:58:06.989Z,8.90
2023-02-14T11:00:39.164Z,9.00
2023-02-14T11:03:11.015Z,9.20
2023-02-14T11:05:46.205Z,9.30
2023-02-14T11:08:16.940Z,9.40
2023-02-14T11:10:46.277Z,9.70
2023-02-14T11:13:31.336Z,9.80
2023-02-14T11:16:02.906Z,9.90
2023-02-14T11:18:33.141Z,10.00
2023-02-14T11:21:10.193Z,10.10
2023-02-14T11:23:42.197Z,10.30
2023-02-14T11:26:18.033Z,10.40
2023-02-14T11:29:00.505Z,10.50
2023-02-14T11:31:35.762Z,10.60
2023-02-14T11:34:07.070Z,10.70
2023-02-14T11:36:42.632Z,10.80
2023-02-14T11:39:26.246Z,11.00
2023-02-14T11:41:57.316Z,11.10
2023-02-14T11:44:29.870Z,11.20
2023-02-14T11:47:17.006Z,11.30
2023-02-14T11:49:56.372Z,11.40
2023-02-14T11:52:26.801Z,11.50
2023-02-14T11:54:55.980Z,11.60
2023-02-14T11:57:28.394Z,11.70
2023-02-14T11:59:59.397Z,11.80
2023-02-14T12:02:38.805Z,11.90
2023-02-14T12:05:17.814Z,12.00
2023-02-14T12:07:48.817Z,12.10
2023-02-14T12:10:26.690Z,12.20
2023-02-14T12:13:25.687Z,12.30
2023-02-14T12:15:57.704Z,12.50
2023-02-14T12:18:50.319Z,12.60
2023-02-14T12:21:43.348Z,12.70
2023-02-14T12:24:24.198Z,12.90
2023-02-14T12:26:59.750Z,12.90
2023-02-14T12:29:33.405Z,13.00
2023-02-14T12:32:21.497Z,13.00
2023-02-14T12:34:51.722Z,13.00
2023-02-14T12:37:31.375Z,13.10
2023-02-14T12:40:15.767Z,13.30
2023-02-14T12:43:04.447Z,13.40
2023-02-14T12:45:55.754Z,13.40
2023-02-14T12:48:39.581Z,13.40
2023-02-14T12:51:12.000Z,13.40
2023-02-14T12:53:58.305Z,13.50
2023-02-14T12:56:43.403Z,13.60
2023-02-14T12:59:23.260Z,13.70
2023-02-14T13:02:30.341Z,13.80
2023-02-14T13:05:07.743Z,14.00
2023-02-14T13:07:50.689Z,13.90
2023-02-14T13:10:45.187Z,13.70
2023-02-14T13:13:24.424Z,13.70
2023-02-14T13:16:04.478Z,13.90
2023-02-14T13:18:44.918Z,14.10
2023-02-14T13:21:18.938Z,14.20
2023-02-14T13:23:50.141Z,14.30
2023-02-14T13:26:21.505Z,14.30
2023-02-14T13:28:53.541Z,14.20
2023-02-14T13:31:22.657Z,14.20
2023-02-14T13:33:54.290Z,14.30
2023-02-14T13:36:24.516Z,14.30
2023-02-14T13:41:30.407Z,14.10
2023-02-14T13:44:01.690Z,14.30
2023-02-14T13:46:53.320Z,14.30
2023-02-14T13:49:32.915Z,14.40
2023-02-14T13:52:04.578Z,14.40
2023-02-14T13:54:37.180Z,14.40
2023-02-14T13:57:31.719Z,14.60
2023-02-14T14:00:23.435Z,14.50
2023-02-14T14:02:52.736Z,14.20
2023-02-14T14:06:03.284Z,14.20
2023-02-14T14:08:44.789Z,14.40
2023-02-14T14:11:30.079Z,14.30
2023-02-14T14:14:01.613Z,14.00
2023-02-14T14:16:33.565Z,13.90
2023-02-14T14:19:04.811Z,14.20
2023-02-14T14:21:35.453Z,14.40
2023-02-14T14:24:23.480Z,14.50
2023-02-14T14:26:59.174Z,14.40
2023-02-14T14:29:31.378Z,14.40
2023-02-14T14:32:01.161Z,14.40
2023-02-14T14:34:30.048Z,14.40
2023-02-14T14:37:07.013Z,14.30
2023-02-14T14:39:39.894Z,14.30
2023-02-14T14:42:14.442Z,14.40
2023-02-14T14:44:48.334Z,14.40
2023-02-14T14:47:21.079Z,14.40
2023-02-14T14:49:49.932Z,14.00
2023-02-14T14:52:30.253Z,14.00
2023-02-14T14:55:01.895Z,13.90
2023-02-14T14:57:30.602Z,13.80
2023-02-14T15:00:24.148Z,13.90
2023-02-14T15:03:15.194Z,14.10
2023-02-14T15:05:45.556Z,13.90
2023-02-14T15:08:31.990Z,13.60
2023-02-14T15:11:07.567Z,13.60
2023-02-14T15:13:53.920Z,13.80
2023-02-14T15:16:26.395Z,13.90
2023-02-14T15:18:58.752Z,13.70
2023-02-14T15:21:28.827Z,13.50
2023-02-14T15:23:57.599Z,13.30
2023-02-14T15:26:31.596Z,13.10
2023-02-14T15:29:02.251Z,12.80
2023-02-14T15:31:34.506Z,12.70
2023-02-14T15:34:04.809Z,12.60
2023-02-14T15:36:35.300Z,12.50
2023-02-14T15:39:07.708Z,12.40
2023-02-14T15:41:37.816Z,12.40
2023-02-14T15:44:06.613Z,12.40
2023-02-14T15:46:38.199Z,12.30
2023-02-14T15:49:10.652Z,12.10
2023-02-14T15:51:40.667Z,12.10
2023-02-14T15:54:20.403Z,11.80
2023-02-14T15:56:53.777Z,11.70
2023-02-14T15:59:26.260Z,11.60
2023-02-14T16:01:58.051Z,11.40
2023-02-14T16:04:29.854Z,11.20
2023-02-14T16:07:08.544Z,11.10
2023-02-14T16:09:37.817Z,10.90
2023-02-14T16:12:29.890Z,10.90
2023-02-14T16:15:04.828Z,10.70
2023-02-14T16:17:35.103Z,10.60
2023-02-14T16:20:36.105Z,10.50
2023-02-14T16:23:23.335Z,10.30
2023-02-14T16:25:52.169Z,10.10
2023-02-14T16:28:22.938Z,10.00
2023-02-14T16:30:56.588Z,10.00
2023-02-14T16:33:28.175Z,9.80
2023-02-14T16:36:02.200Z,9.70
2023-02-14T16:38:30.991Z,9.70
2023-02-14T16:40:59.926Z,9.60
2023-02-14T16:43:30.172Z,9.50
2023-02-14T16:45:58.866Z,9.40
2023-02-14T16:48:27.698Z,9.30
2023-02-14T16:50:56.341Z,9.20
2023-02-14T16:53:28.492Z,9.10
2023-02-14T16:55:58.556Z,9.00
2023-02-14T16:58:33.695Z,8.90
2023-02-14T17:01:02.605Z,8.80
2023-02-14T17:03:31.525Z,8.70
2023-02-14T17:06:02.799Z,8.60
2023-02-14T17:08:32.224Z,8.50
2023-02-14T17:11:02.434Z,8.40
2023-02-14T17:13:34.593Z,8.20
2023-02-14T17:16:04.638Z,8.10
2023-02-14T17:18:35.236Z,7.90
2023-02-14T17:21:05.092Z,7.80
2023-02-14T17:23:33.762Z,7.80
2023-02-14T17:26:02.564Z,7.70
2023-02-14T17:28:32.585Z,7.60
2023-02-14T17:31:02.638Z,7.40
2023-02-14T17:33:33.533Z,7.30
2023-02-14T17:36:06.709Z,7.20
2023-02-14T17:38:36.027Z,7.10
2023-02-14T17:41:13.684Z,7.10
2023-02-14T17:43:43.879Z,7.00
2023-02-14T17:46:14.316Z,6.90
2023-02-14T17:48:45.523Z,6.80
2023-02-14T17:51:15.761Z,6.70
2023-02-14T17:53:44.594Z,6.60
2023-02-14T17:56:18.002Z,6.40
2023-02-14T17:58:48.742Z,6.50
2023-02-14T18:01:19.120Z,6.40
2023-02-14T18:03:48.115Z,6.30
2023-02-14T18:06:19.299Z,6.20
2023-02-14T18:08:49.878Z,6.20
2023-02-14T18:11:20.605Z,6.10
2023-02-14T18:13:50.956Z,6.10
2023-02-14T18:16:20.567Z,6.00
2023-02-14T18:18:49.554Z,5.90
2023-02-14T18:21:21.111Z,5.90
2023-02-14T18:23:49.947Z,5.90
2023-02-14T18:26:19.577Z,5.80
2023-02-14T18:28:51.024Z,5.80
2023-02-14T18:31:21.778Z,5.80
2023-02-14T18:33:51.898Z,5.70
2023-02-14T18:36:30.179Z,5.70
2023-02-14T18:39:00.042Z,5.60
2023-02-14T18:41:29.782Z,5.50
2023-02-14T18:43:58.520Z,5.40
2023-02-14T18:46:30.806Z,5.40
2023-02-14T18:48:59.692Z,5.30
2023-02-14T18:51:30.028Z,5.30
2023-02-14T18:53:59.920Z,5.20
2023-02-14T18:56:31.347Z,5.20
2023-02-14T18:59:01.552Z,5.10
2023-02-14T19:01:33.325Z,5.10
2023-02-14T19:04:02.417Z,5.00
2023-02-14T19:06:32.377Z,5.00
2023-02-14T19:09:01.549Z,4.90
2023-02-14T19:11:33.018Z,5.00
2023-02-14T19:14:03.457Z,5.00
2023-02-14T19:16:36.830Z,5.00
2023-02-14T19:19:06.420Z,4.90
2023-02-14T19:21:36.867Z,4.90
2023-02-14T19:24:08.183Z,4.80
2023-02-14T19:26:40.727Z,4.70
2023-02-14T19:29:11.677Z,4.70
2023-02-14T19:31:43.797Z,4.60
2023-02-14T19:34:17.901Z,4.50
2023-02-14T19:36:47.027Z,4.40
2023-02-14T19:39:16.043Z,4.50
2023-02-14T19:41:44.723Z,4.40
2023-02-14T19:44:14.815Z,4.40
2023-02-14T19:46:47.751Z,4.40
2023-02-14T19:49:18.412Z,4.40
2023-02-14T19:51:48.082Z,4.30
2023-02-14T19:54:16.969Z,4.30
2023-02-14T19:56:47.268Z,4.20
2023-02-14T19:59:20.220Z,4.10
2023-02-14T20:01:51.837Z,4.10
2023-02-14T20:04:22.470Z,4.10
2023-02-14T20:06:52.339Z,4.00
2023-02-14T20:09:22.006Z,3.90
2023-02-14T20:11:54.665Z,3.90
2023-02-14T20:14:25.193Z,3.90
2023-02-14T20:16:57.066Z,3.80
2023-02-14T20:19:29.424Z,3.80
2023-02-14T20:21:59.516Z,3.70
2023-02-14T20:24:30.963Z,3.70
2023-02-14T20:27:00.537Z,3.70
2023-02-14T20:29:32.157Z,3.60
2023-02-14T20:32:06.543Z,3.50
2023-02-14T20:34:35.411Z,3.60
2023-02-14T20:37:04.184Z,3.60
2023-02-14T20:39:35.135Z,3.50
2023-02-14T20:42:04.533Z,3.50
2023-02-14T20:44:33.873Z,3.40
2023-02-14T20:47:04.149Z,3.40
2023-02-14T20:49:33.276Z,3.40
2023-02-14T20:52:02.567Z,3.40
2023-02-14T20:54:31.436Z,3.30
2023-02-14T20:57:00.114Z,3.20
2023-02-14T20:59:31.446Z,3.20
2023-02-14T21:02:04.484Z,3.20
2023-02-14T21:04:33.144Z,3.10
2023-02-14T21:07:07.618Z,3.10
2023-02-14T21:09:38.701Z,3.20
2023-02-14T21:12:08.420Z,3.10
2023-02-14T21:14:37.181Z,3.10
2023-02-14T21:17:07.343Z,3.00
2023-02-14T21:19:36.021Z,3.00
2023-02-14T21:22:04.645Z,2.90
2023-02-14T21:24:37.711Z,2.90
2023-02-14T21:27:06.492Z,2.90
2023-02-14T21:29:36.834Z,2.90
2023-02-14T21:32:07.168Z,2.90
2023-02-14T21:34:36.546Z,2.80
2023-02-14T21:37:05.321Z,2.80
2023-02-14T21:39:35.814Z,2.70
2023-02-14T21:42:04.859Z,2.70
2023-02-14T21:44:50.983Z,2.70
2023-02-14T21:47:21.065Z,2.70
2023-02-14T21:50:06.973Z,2.70
2023-02-14T21:52:36.718Z,2.70
2023-02-14T21:55:05.825Z,2.60
2023-02-14T21:57:34.607Z,2.60
2023-02-14T22:00:04.126Z,2.50
2023-02-14T22:02:38.762Z,2.40
2023-02-14T22:05:08.432Z,2.40
2023-02-14T22:07:37.368Z,2.50
2023-02-14T22:10:07.127Z,2.40
2023-02-14T22:12:36.090Z,2.30
2023-02-14T22:15:05.393Z,2.20
2023-02-14T22:17:35.787Z,2.20
2023-02-14T22:20:06.065Z,2.20
2023-02-14T22:22:34.973Z,2.30
2023-02-14T22:25:03.587Z,2.30
2023-02-14T22:27:32.220Z,2.30
2023-02-14T22:30:00.936Z,2.20
2023-02-14T22:32:29.892Z,2.10
2023-02-14T22:35:00.300Z,2.10
2023-02-14T22:37:29.159Z,2.10
2023-02-14T22:39:57.826Z,1.90
2023-02-14T22:42:26.469Z,1.90
2023-02-14T22:44:55.286Z,2.00
2023-02-14T22:47:24.068Z,2.00
2023-02-14T22:49:52.781Z,2.00
2023-02-14T22:52:22.896Z,2.00
2023-02-14T22:54:53.857Z,1.90
2023-02-14T22:57:22.708Z,1.90
2023-02-14T22:59:51.382Z,1.90
2023-02-14T23:02:21.088Z,1.90
2023-02-14T23:04:51.033Z,1.80
2023-02-14T23:07:20.108Z,1.70
2023-02-14T23:09:51.414Z,1.80
2023-02-14T23:12:37.848Z,1.90
2023-02-14T23:15:39.726Z,1.90
2023-02-14T23:18:30.602Z,1.80
2023-02-14T23:21:28.017Z,1.80
2023-02-14T23:23:56.676Z,1.80
2023-02-14T23:26:26.763Z,1.80
2023-02-14T23:28:55.680Z,1.70
2023-02-14T23:31:24.762Z,1.70
2023-02-14T23:33:53.742Z,1.60
2023-02-14T23:36:22.971Z,1.60
2023-02-14T23:38:51.763Z,1.60
2023-02-14T23:41:38.267Z,1.60
2023-02-14T23:44:08.779Z,1.60
2023-02-14T23:46:38.002Z,1.50
2023-02-14T23:49:06.888Z,1.40
2023-02-14T23:51:35.691Z,1.30
2023-02-14T23:54:05.027Z,1.30
2023-02-14T23:56:34.352Z,1.40
2023-02-14T23:59:02.977Z,1.30
